sensor_id;sensor_type;location;lat;lon;timestamp;pressure;altitude;pressure_sealevel;temperature;humidity
70011;BME280;59543;37.950;-122.338;2023-02-15T02:49:39;101470.09;;;8.42;53.73
70011;BME280;59543;37.950;-122.338;2023-02-15T02:54:53;101476.56;;;8.27;54.85
70011;BME280;59543;37.950;-122.338;2023-02-15T02:57:21;101481.88;;;8.16;54.82
70011;BME280;59543;37.950;-122.338;2023-02-15T02:59:50;101490.41;;;8.21;53.61
70011;BME280;59543;37.950;-122.338;2023-02-15T03:02:22;101505.09;;;8.28;53.34
70011;BME280;59543;37.950;-122.338;2023-02-15T03:04:54;101502.34;;;8.17;53.86
70011;BME280;59543;37.950;-122.338;2023-02-15T03:07:30;101498.69;;;8.18;53.30
70011;BME280;59543;37.950;-122.338;2023-02-15T03:09:58;101517.22;;;8.21;53.44
70011;BME280;59543;37.950;-122.338;2023-02-15T03:12:29;101523.22;;;8.24;53.44
70011;BME280;59543;37.950;-122.338;2023-02-15T03:15:07;101536.34;;;8.16;54.05
70011;BME280;59543;37.950;-122.338;2023-02-15T03:17:37;101537.53;;;8.12;54.64
70011;BME280;59543;37.950;-122.338;2023-02-15T03:20:09;101542.78;;;8.14;54.40
70011;BME280;59543;37.950;-122.338;2023-02-15T03:22:42;101547.13;;;8.04;54.50
70011;BME280;59543;37.950;-122.338;2023-02-15T03:25:20;101557.59;;;8.07;54.75
70011;BME280;59543;37.950;-122.338;2023-02-15T03:27:52;101556.50;;;8.09;54.68
70011;BME280;59543;37.950;-122.338;2023-02-15T03:30:22;101554.84;;;7.95;55.52
70011;BME280;59543;37.950;-122.338;2023-02-15T03:32:50;101565.22;;;8.00;55.13
70011;BME280;59543;37.950;-122.338;2023-02-15T03:35:22;101579.94;;;7.94;54.74
70011;BME280;59543;37.950;-122.338;2023-02-15T03:38:00;101572.00;;;7.93;54.49
70011;BME280;59543;37.950;-122.338;2023-02-15T03:40:34;101583.56;;;7.93;54.49
70011;BME280;59543;37.950;-122.338;2023-02-15T03:46:08;101590.59;;;7.70;55.27
70011;BME280;59543;37.950;-122.338;2023-02-15T03:48:40;101595.06;;;7.70;55.19
70011;BME280;59543;37.950;-122.338;2023-02-15T03:51:14;101601.31;;;7.70;56.28
70011;BME280;59543;37.950;-122.338;2023-02-15T03:54:03;101594.56;;;7.65;55.91
70011;BME280;59543;37.950;-122.338;2023-02-15T03:56:34;101599.47;;;7.71;55.75
70011;BME280;59543;37.950;-122.338;2023-02-15T03:59:01;101604.94;;;7.69;56.01
70011;BME280;59543;37.950;-122.338;2023-02-15T04:02:11;101599.91;;;7.52;55.88
70011;BME280;59543;37.950;-122.338;2023-02-15T04:04:45;101614.81;;;7.56;56.18
70011;BME280;59543;37.950;-122.338;2023-02-15T04:07:11;101602.09;;;7.47;56.23
70011;BME280;59543;37.950;-122.338;2023-02-15T04:09:38;101616.31;;;7.60;56.57
70011;BME280;59543;37.950;-122.338;2023-02-15T04:12:22;101610.19;;;7.45;56.87
70011;BME280;59543;37.950;-122.338;2023-02-15T04:14:48;101612.13;;;7.30;57.58
70011;BME280;59543;37.950;-122.338;2023-02-15T04:17:33;101609.91;;;7.50;57.65
70011;BME280;59543;37.950;-122.338;2023-02-15T04:19:59;101613.72;;;7.46;57.88
70011;BME280;59543;37.950;-122.338;2023-02-15T04:22:44;101631.84;;;7.42;58.23
70011;BME280;59543;37.950;-122.338;2023-02-15T04:25:29;101620.69;;;7.36;58.83
70011;BME280;59543;37.950;-122.338;2023-02-15T04:27:55;101628.72;;;7.48;58.07
70011;BME280;59543;37.950;-122.338;2023-02-15T04:30:24;101650.06;;;7.37;58.41
70011;BME280;59543;37.950;-122.338;2023-02-15T04:32:51;101646.28;;;7.27;58.84
70011;BME280;59543;37.950;-122.338;2023-02-15T04:35:18;101656.13;;;7.39;58.06
70011;BME280;59543;37.950;-122.338;2023-02-15T04:37:44;101659.16;;;7.35;57.17
70011;BME280;59543;37.950;-122.338;2023-02-15T04:40:13;101668.66;;;7.39;57.48
70011;BME280;59543;37.950;-122.338;2023-02-15T04:42:39;101663.41;;;7.24;57.98
70011;BME280;59543;37.950;-122.338;2023-02-15T04:45:06;101677.63;;;7.25;57.87
70011;BME280;59543;37.950;-122.338;2023-02-15T04:47:33;101692.41;;;7.18;58.54
70011;BME280;59543;37.950;-122.338;2023-02-15T04:49:59;101685.56;;;7.26;57.81
70011;BME280;59543;37.950;-122.338;2023-02-15T04:52:25;101688.75;;;7.19;57.58
70011;BME280;59543;37.950;-122.338;2023-02-15T04:54:51;101697.53;;;7.21;58.01
70011;BME280;59543;37.950;-122.338;2023-02-15T04:57:17;101712.72;;;7.07;58.39
70011;BME280;59543;37.950;-122.338;2023-02-15T04:59:44;101709.28;;;7.05;57.95
70011;BME280;59543;37.950;-122.338;2023-02-15T05:02:09;101720.41;;;7.12;58.19
70011;BME280;59543;37.950;-122.338;2023-02-15T05:04:36;101718.06;;;7.07;58.43
70011;BME280;59543;37.950;-122.338;2023-02-15T05:07:02;101716.88;;;6.99;59.05
70011;BME280;59543;37.950;-122.338;2023-02-15T05:09:28;101720.28;;;7.01;59.25
70011;BME280;59543;37.950;-122.338;2023-02-15T05:11:54;101725.34;;;7.05;59.37
70011;BME280;59543;37.950;-122.338;2023-02-15T05:14:20;101735.69;;;6.97;59.65
70011;BME280;59543;37.950;-122.338;2023-02-15T05:16:47;101734.81;;;6.97;60.06
70011;BME280;59543;37.950;-122.338;2023-02-15T05:19:13;101744.66;;;6.96;60.20
70011;BME280;59543;37.950;-122.338;2023-02-15T05:21:39;101749.56;;;6.90;60.66
70011;BME280;59543;37.950;-122.338;2023-02-15T05:24:05;101756.13;;;6.98;60.90
70011;BME280;59543;37.950;-122.338;2023-02-15T05:26:51;101759.06;;;6.81;61.35
70011;BME280;59543;37.950;-122.338;2023-02-15T05:29:36;101763.53;;;6.80;60.94
70011;BME280;59543;37.950;-122.338;2023-02-15T05:32:01;101773.47;;;6.78;61.20
70011;BME280;59543;37.950;-122.338;2023-02-15T05:34:29;101767.28;;;6.78;61.20
70011;BME280;59543;37.950;-122.338;2023-02-15T05:36:56;101768.28;;;6.90;60.56
70011;BME280;59543;37.950;-122.338;2023-02-15T05:39:21;101771.84;;;6.76;61.10
70011;BME280;59543;37.950;-122.338;2023-02-15T05:41:48;101765.88;;;6.58;61.11
70011;BME280;59543;37.950;-122.338;2023-02-15T05:44:13;101776.22;;;6.77;60.20
70011;BME280;59543;37.950;-122.338;2023-02-15T05:46:40;101770.69;;;6.80;58.95
70011;BME280;59543;37.950;-122.338;2023-02-15T05:49:05;101769.50;;;6.71;59.05
70011;BME280;59543;37.950;-122.338;2023-02-15T05:51:32;101779.31;;;6.71;58.47
70011;BME280;59543;37.950;-122.338;2023-02-15T05:53:58;101789.47;;;6.66;59.14
70011;BME280;59543;37.950;-122.338;2023-02-15T05:56:24;101787.31;;;6.71;58.50
70011;BME280;59543;37.950;-122.338;2023-02-15T05:58:53;101789.91;;;6.72;58.40
70011;BME280;59543;37.950;-122.338;2023-02-15T06:01:20;101791.75;;;6.57;59.21
70011;BME280;59543;37.950;-122.338;2023-02-15T06:03:48;101797.47;;;6.66;59.82
70011;BME280;59543;37.950;-122.338;2023-02-15T06:06:15;101796.13;;;6.58;61.26
70011;BME280;59543;37.950;-122.338;2023-02-15T06:08:42;101809.50;;;6.58;64.21
70011;BME280;59543;37.950;-122.338;2023-02-15T06:11:08;101809.09;;;6.64;64.68
70011;BME280;59543;37.950;-122.338;2023-02-15T06:13:35;101822.28;;;6.68;64.39
70011;BME280;59543;37.950;-122.338;2023-02-15T06:16:01;101820.44;;;6.82;63.22
70011;BME280;59543;37.950;-122.338;2023-02-15T06:18:27;101828.31;;;6.57;63.31
70011;BME280;59543;37.950;-122.338;2023-02-15T06:20:53;101819.34;;;6.58;63.42
70011;BME280;59543;37.950;-122.338;2023-02-15T06:23:19;101830.59;;;6.49;62.38
70011;BME280;59543;37.950;-122.338;2023-02-15T06:25:46;101830.41;;;6.37;62.13
70011;BME280;59543;37.950;-122.338;2023-02-15T06:28:12;101838.22;;;6.40;61.18
70011;BME280;59543;37.950;-122.338;2023-02-15T06:30:39;101838.63;;;6.34;60.73
70011;BME280;59543;37.950;-122.338;2023-02-15T06:33:05;101837.97;;;6.45;60.12
70011;BME280;59543;37.950;-122.338;2023-02-15T06:35:31;101845.41;;;6.40;60.29
70011;BME280;59543;37.950;-122.338;2023-02-15T06:37:57;101843.38;;;6.44;60.81
70011;BME280;59543;37.950;-122.338;2023-02-15T06:40:23;101847.88;;;6.43;60.52
70011;BME280;59543;37.950;-122.338;2023-02-15T06:42:50;101845.22;;;6.43;60.46
70011;BME280;59543;37.950;-122.338;2023-02-15T06:45:16;101849.22;;;6.36;61.06
70011;BME280;59543;37.950;-122.338;2023-02-15T06:47:42;101851.59;;;6.40;61.47
70011;BME280;59543;37.950;-122.338;2023-02-15T06:50:08;101843.28;;;6.31;61.34
70011;BME280;59543;37.950;-122.338;2023-02-15T06:52:34;101846.84;;;6.17;62.32
70011;BME280;59543;37.950;-122.338;2023-02-15T06:55:01;101845.69;;;6.21;62.33
70011;BME280;59543;37.950;-122.338;2023-02-15T06:57:27;101856.78;;;6.29;61.17
70011;BME280;59543;37.950;-122.338;2023-02-15T06:59:53;101854.06;;;6.15;61.52
70011;BME280;59543;37.950;-122.338;2023-02-15T07:02:19;101857.88;;;6.25;60.02
70011;BME280;59543;37.950;-122.338;2023-02-15T07:04:45;101859.53;;;6.28;59.90
70011;BME280;59543;37.950;-122.338;2023-02-15T07:07:11;101864.84;;;6.13;59.69
70011;BME280;59543;37.950;-122.338;2023-02-15T07:09:38;101865.16;;;6.23;59.26
70011;BME280;59543;37.950;-122.338;2023-02-15T07:12:05;101873.44;;;6.18;58.64
70011;BME280;59543;37.950;-122.338;2023-02-15T07:14:50;101879.16;;;6.12;58.96
70011;BME280;59543;37.950;-122.338;2023-02-15T07:17:17;101879.19;;;6.27;58.55
70011;BME280;59543;37.950;-122.338;2023-02-15T07:19:43;101880.13;;;6.11;58.65
70011;BME280;59543;37.950;-122.338;2023-02-15T07:22:09;101877.56;;;6.24;58.02
70011;BME280;59543;37.950;-122.338;2023-02-15T07:24:35;101879.44;;;6.22;57.31
70011;BME280;59543;37.950;-122.338;2023-02-15T07:27:02;101882.91;;;6.24;56.83
70011;BME280;59543;37.950;-122.338;2023-02-15T07:29:28;101887.34;;;6.09;56.89
70011;BME280;59543;37.950;-122.338;2023-02-15T07:31:54;101886.13;;;6.15;56.60
70011;BME280;59543;37.950;-122.338;2023-02-15T07:34:21;101883.75;;;6.25;55.32
70011;BME280;59543;37.950;-122.338;2023-02-15T07:36:47;101892.34;;;6.30;55.46
70011;BME280;59543;37.950;-122.338;2023-02-15T07:39:13;101895.09;;;6.14;56.37
70011;BME280;59543;37.950;-122.338;2023-02-15T07:41:39;101905.25;;;6.23;55.66
70011;BME280;59543;37.950;-122.338;2023-02-15T07:44:05;101906.72;;;6.13;54.54
70011;BME280;59543;37.950;-122.338;2023-02-15T07:46:36;101918.59;;;6.23;54.41
70011;BME280;59543;37.950;-122.338;2023-02-15T07:49:03;101914.47;;;6.17;53.68
70011;BME280;59543;37.950;-122.338;2023-02-15T07:51:29;101922.97;;;6.24;53.58
70011;BME280;59543;37.950;-122.338;2023-02-15T07:53:55;101920.00;;;6.14;54.56
70011;BME280;59543;37.950;-122.338;2023-02-15T07:56:22;101932.94;;;6.06;54.81
70011;BME280;59543;37.950;-122.338;2023-02-15T07:58:48;101933.47;;;6.27;53.26
70011;BME280;59543;37.950;-122.338;2023-02-15T08:01:23;101939.41;;;6.32;53.14
70011;BME280;59543;37.950;-122.338;2023-02-15T08:03:50;101939.00;;;6.24;53.04
70011;BME280;59543;37.950;-122.338;2023-02-15T08:06:16;101940.03;;;6.22;52.86
70011;BME280;59543;37.950;-122.338;2023-02-15T08:08:43;101947.84;;;6.10;53.50
70011;BME280;59543;37.950;-122.338;2023-02-15T08:14:17;101959.16;;;6.00;53.06
70011;BME280;59543;37.950;-122.338;2023-02-15T08:16:46;101966.56;;;5.94;52.75
70011;BME280;59543;37.950;-122.338;2023-02-15T08:19:19;101962.75;;;5.99;53.04
70011;BME280;59543;37.950;-122.338;2023-02-15T08:21:48;101969.13;;;5.80;53.56
70011;BME280;59543;37.950;-122.338;2023-02-15T08:24:18;101970.13;;;5.63;54.32
70011;BME280;59543;37.950;-122.338;2023-02-15T08:26:44;101973.91;;;5.59;53.67
70011;BME280;59543;37.950;-122.338;2023-02-15T08:29:13;101969.00;;;5.36;54.61
70011;BME280;59543;37.950;-122.338;2023-02-15T08:31:40;101973.38;;;5.37;53.73
70011;BME280;59543;37.950;-122.338;2023-02-15T08:34:08;101965.81;;;5.45;53.97
70011;BME280;59543;37.950;-122.338;2023-02-15T08:36:36;101973.38;;;5.68;53.82
70011;BME280;59543;37.950;-122.338;2023-02-15T08:39:03;101972.34;;;5.55;54.46
70011;BME280;59543;37.950;-122.338;2023-02-15T08:41:32;101968.22;;;5.49;54.32
70011;BME280;59543;37.950;-122.338;2023-02-15T08:44:02;101982.25;;;5.37;54.78
70011;BME280;59543;37.950;-122.338;2023-02-15T08:46:31;101986.22;;;5.30;55.63
70011;BME280;59543;37.950;-122.338;2023-02-15T08:48:58;101983.88;;;5.24;54.39
70011;BME280;59543;37.950;-122.338;2023-02-15T08:51:27;101991.28;;;5.35;52.32
70011;BME280;59543;37.950;-122.338;2023-02-15T08:53:56;101981.50;;;5.51;51.66
70011;BME280;59543;37.950;-122.338;2023-02-15T08:56:28;101983.63;;;5.44;51.10
70011;BME280;59543;37.950;-122.338;2023-02-15T08:58:56;101982.41;;;5.50;50.47
70011;BME280;59543;37.950;-122.338;2023-02-15T09:01:24;101982.44;;;5.66;50.50
70011;BME280;59543;37.950;-122.338;2023-02-15T09:03:55;101990.69;;;5.45;49.84
70011;BME280;59543;37.950;-122.338;2023-02-15T09:06:22;101991.03;;;5.55;49.52
70011;BME280;59543;37.950;-122.338;2023-02-15T09:08:50;101982.06;;;5.56;49.78
70011;BME280;59543;37.950;-122.338;2023-02-15T09:11:18;101995.16;;;5.77;48.19
70011;BME280;59543;37.950;-122.338;2023-02-15T09:14:03;101994.16;;;5.63;48.43
70011;BME280;59543;37.950;-122.338;2023-02-15T09:16:32;101998.25;;;5.53;49.54
70011;BME280;59543;37.950;-122.338;2023-02-15T09:18:59;102005.06;;;5.43;48.56
70011;BME280;59543;37.950;-122.338;2023-02-15T09:21:30;102013.06;;;5.43;48.81
70011;BME280;59543;37.950;-122.338;2023-02-15T09:24:02;102020.28;;;5.41;50.45
70011;BME280;59543;37.950;-122.338;2023-02-15T09:26:31;102019.88;;;5.33;50.09
70011;BME280;59543;37.950;-122.338;2023-02-15T09:29:00;102025.94;;;5.19;50.29
70011;BME280;59543;37.950;-122.338;2023-02-15T09:31:32;102034.13;;;5.16;51.07
70011;BME280;59543;37.950;-122.338;2023-02-15T09:34:00;102035.94;;;4.98;51.81
70011;BME280;59543;37.950;-122.338;2023-02-15T09:36:28;102029.81;;;5.29;48.47
70011;BME280;59543;37.950;-122.338;2023-02-15T09:38:56;102037.47;;;5.19;48.84
70011;BME280;59543;37.950;-122.338;2023-02-15T09:43:59;102032.59;;;5.27;48.41
70011;BME280;59543;37.950;-122.338;2023-02-15T09:52:22;102035.44;;;5.56;47.49
70011;BME280;59543;37.950;-122.338;2023-02-15T09:55:24;102032.53;;;5.77;46.35
70011;BME280;59543;37.950;-122.338;2023-02-15T10:08:40;102018.84;;;6.14;44.73
70011;BME280;59543;37.950;-122.338;2023-02-15T10:11:15;102010.47;;;6.21;45.47
70011;BME280;59543;37.950;-122.338;2023-02-15T10:14:13;102013.69;;;6.11;44.64
70011;BME280;59543;37.950;-122.338;2023-02-15T10:24:24;102011.91;;;5.96;45.50
70011;BME280;59543;37.950;-122.338;2023-02-15T10:26:58;102014.03;;;6.05;45.62
70011;BME280;59543;37.950;-122.338;2023-02-15T10:29:34;102011.91;;;5.96;46.13
70011;BME280;59543;37.950;-122.338;2023-02-15T10:35:24;102009.81;;;6.01;46.51
70011;BME280;59543;37.950;-122.338;2023-02-15T10:40:49;102010.16;;;5.79;47.76
70011;BME280;59543;37.950;-122.338;2023-02-15T10:49:39;102010.13;;;5.32;50.38
70011;BME280;59543;37.950;-122.338;2023-02-15T10:55:19;102023.09;;;5.06;50.80
70011;BME280;59543;37.950;-122.338;2023-02-15T11:00:35;102024.34;;;4.99;51.39
70011;BME280;59543;37.950;-122.338;2023-02-15T11:08:10;102021.31;;;4.72;53.01
70011;BME280;59543;37.950;-122.338;2023-02-15T11:13:21;102024.16;;;4.51;54.56
70011;BME280;59543;37.950;-122.338;2023-02-15T11:21:13;102037.59;;;4.13;54.80
70011;BME280;59543;37.950;-122.338;2023-02-15T11:23:44;102036.50;;;4.00;56.24
70011;BME280;59543;37.950;-122.338;2023-02-15T11:26:15;102037.81;;;3.92;56.44
70011;BME280;59543;37.950;-122.338;2023-02-15T11:31:59;102039.47;;;3.75;55.90
70011;BME280;59543;37.950;-122.338;2023-02-15T11:34:37;102035.66;;;3.62;57.57
70011;BME280;59543;37.950;-122.338;2023-02-15T11:37:08;102040.91;;;3.63;56.81
70011;BME280;59543;37.950;-122.338;2023-02-15T11:39:36;102043.00;;;3.57;57.44
70011;BME280;59543;37.950;-122.338;2023-02-15T11:42:04;102050.03;;;3.58;56.36
70011;BME280;59543;37.950;-122.338;2023-02-15T11:44:35;102046.66;;;3.54;56.55
70011;BME280;59543;37.950;-122.338;2023-02-15T11:47:07;102052.69;;;3.58;55.17
70011;BME280;59543;37.950;-122.338;2023-02-15T11:49:34;102053.13;;;3.49;55.98
70011;BME280;59543;37.950;-122.338;2023-02-15T11:52:04;102055.28;;;3.40;55.33
70011;BME280;59543;37.950;-122.338;2023-02-15T11:54:33;102052.50;;;3.43;55.68
70011;BME280;59543;37.950;-122.338;2023-02-15T11:59:49;102046.00;;;3.87;51.76
70011;BME280;59543;37.950;-122.338;2023-02-15T12:02:21;102048.19;;;4.32;51.17
70011;BME280;59543;37.950;-122.338;2023-02-15T12:04:54;102054.81;;;4.43;50.62
70011;BME280;59543;37.950;-122.338;2023-02-15T12:07:28;102053.41;;;4.70;49.93
70011;BME280;59543;37.950;-122.338;2023-02-15T12:12:48;102056.06;;;4.53;51.14
70011;BME280;59543;37.950;-122.338;2023-02-15T12:15:14;102069.91;;;4.42;51.20
70011;BME280;59543;37.950;-122.338;2023-02-15T12:17:49;102071.72;;;4.24;51.80
70011;BME280;59543;37.950;-122.338;2023-02-15T12:20:20;102070.50;;;4.12;52.16
70011;BME280;59543;37.950;-122.338;2023-02-15T12:22:59;102077.06;;;4.05;52.20
70011;BME280;59543;37.950;-122.338;2023-02-15T12:25:41;102086.94;;;4.03;52.26
70011;BME280;59543;37.950;-122.338;2023-02-15T12:28:35;102081.47;;;3.87;52.12
70011;BME280;59543;37.950;-122.338;2023-02-15T12:31:28;102083.47;;;4.01;51.28
70011;BME280;59543;37.950;-122.338;2023-02-15T12:33:57;102081.88;;;4.16;50.82
70011;BME280;59543;37.950;-122.338;2023-02-15T12:36:31;102085.34;;;3.99;51.50
70011;BME280;59543;37.950;-122.338;2023-02-15T12:42:00;102086.78;;;3.87;52.60
70011;BME280;59543;37.950;-122.338;2023-02-15T12:44:30;102085.63;;;3.93;53.39
70011;BME280;59543;37.950;-122.338;2023-02-15T12:49:42;102091.53;;;3.62;54.89
70011;BME280;59543;37.950;-122.338;2023-02-15T12:54:48;102109.34;;;3.41;55.04
70011;BME280;59543;37.950;-122.338;2023-02-15T12:57:35;102114.59;;;3.42;55.60
70011;BME280;59543;37.950;-122.338;2023-02-15T13:00:25;102122.22;;;3.31;55.23
70011;BME280;59543;37.950;-122.338;2023-02-15T13:02:55;102116.38;;;3.42;54.93
70011;BME280;59543;37.950;-122.338;2023-02-15T13:08:19;102121.41;;;3.29;55.38
70011;BME280;59543;37.950;-122.338;2023-02-15T13:13:29;102123.94;;;3.12;55.61
70011;BME280;59543;37.950;-122.338;2023-02-15T13:15:59;102133.13;;;3.05;56.56
70011;BME280;59543;37.950;-122.338;2023-02-15T13:18:53;102130.50;;;3.03;56.80
70011;BME280;59543;37.950;-122.338;2023-02-15T13:21:31;102138.28;;;2.87;57.48
70011;BME280;59543;37.950;-122.338;2023-02-15T13:26:42;102135.69;;;2.65;58.36
70011;BME280;59543;37.950;-122.338;2023-02-15T13:29:21;102141.03;;;2.64;58.99
70011;BME280;59543;37.950;-122.338;2023-02-15T13:31:50;102133.06;;;2.64;59.00
70011;BME280;59543;37.950;-122.338;2023-02-15T13:36:57;102141.25;;;2.59;58.26
70011;BME280;59543;37.950;-122.338;2023-02-15T13:39:48;102145.63;;;2.60;59.50
70011;BME280;59543;37.950;-122.338;2023-02-15T13:42:22;102149.63;;;2.70;59.50
70011;BME280;59543;37.950;-122.338;2023-02-15T13:47:21;102146.25;;;2.87;59.25
70011;BME280;59543;37.950;-122.338;2023-02-15T13:50:16;102147.00;;;3.11;57.49
70011;BME280;59543;37.950;-122.338;2023-02-15T13:55:47;102149.56;;;3.33;54.36
70011;BME280;59543;37.950;-122.338;2023-02-15T14:09:59;102154.59;;;3.60;56.20
70011;BME280;59543;37.950;-122.338;2023-02-15T14:16:04;102153.72;;;3.40;56.96
70011;BME280;59543;37.950;-122.338;2023-02-15T14:21:37;102156.81;;;3.50;55.91
70011;BME280;59543;37.950;-122.338;2023-02-15T14:24:16;102159.63;;;3.66;55.46
70011;BME280;59543;37.950;-122.338;2023-02-15T14:32:07;102163.13;;;3.48;57.50
70011;BME280;59543;37.950;-122.338;2023-02-15T14:37:16;102168.13;;;3.35;57.76
70011;BME280;59543;37.950;-122.338;2023-02-15T14:40:00;102167.41;;;3.31;57.90
70011;BME280;59543;37.950;-122.338;2023-02-15T14:43:14;102176.97;;;3.15;58.20
70011;BME280;59543;37.950;-122.338;2023-02-15T14:48:41;102192.34;;;3.08;58.31
70011;BME280;59543;37.950;-122.338;2023-02-15T14:51:10;102192.72;;;2.99;58.97
70011;BME280;59543;37.950;-122.338;2023-02-15T14:53:38;102191.38;;;2.89;59.27
70011;BME280;59543;37.950;-122.338;2023-02-15T14:56:16;102194.34;;;2.81;59.68
70011;BME280;59543;37.950;-122.338;2023-02-15T15:03:54;102213.25;;;2.51;61.74
70011;BME280;59543;37.950;-122.338;2023-02-15T15:06:29;102203.00;;;2.42;61.65
70011;BME280;59543;37.950;-122.338;2023-02-15T15:09:24;102215.84;;;2.31;61.91
70011;BME280;59543;37.950;-122.338;2023-02-15T15:11:53;102224.09;;;2.23;62.17
70011;BME280;59543;37.950;-122.338;2023-02-15T15:14:43;102228.09;;;2.12;62.79
70011;BME280;59543;37.950;-122.338;2023-02-15T15:20:46;102240.31;;;1.92;63.94
70011;BME280;59543;37.950;-122.338;2023-02-15T15:22:46;102237.06;;;2.08;63.12
70011;BME280;59543;37.950;-122.338;2023-02-15T15:27:59;102248.00;;;2.00;63.79
70011;BME280;59543;37.950;-122.338;2023-02-15T15:46:13;102268.25;;;2.02;65.73
70011;BME280;59543;37.950;-122.338;2023-02-15T15:48:43;102264.06;;;2.20;65.16
70011;BME280;59543;37.950;-122.338;2023-02-15T15:51:32;102271.59;;;2.31;65.31
70011;BME280;59543;37.950;-122.338;2023-02-15T15:54:00;102273.28;;;2.34;65.04
70011;BME280;59543;37.950;-122.338;2023-02-15T15:56:31;102277.50;;;2.39;65.23
70011;BME280;59543;37.950;-122.338;2023-02-15T15:59:01;102276.97;;;2.53;64.43
70011;BME280;59543;37.950;-122.338;2023-02-15T16:01:31;102278.31;;;2.63;64.71
70011;BME280;59543;37.950;-122.338;2023-02-15T16:04:00;102285.19;;;2.69;64.75
70011;BME280;59543;37.950;-122.338;2023-02-15T16:06:37;102285.69;;;2.79;65.39
70011;BME280;59543;37.950;-122.338;2023-02-15T16:11:44;102288.47;;;2.97;64.33
70011;BME280;59543;37.950;-122.338;2023-02-15T16:14:38;102298.69;;;3.08;63.21
70011;BME280;59543;37.950;-122.338;2023-02-15T16:17:08;102288.13;;;3.27;61.89
70011;BME280;59543;37.950;-122.338;2023-02-15T16:19:42;102293.41;;;3.70;59.36
70011;BME280;59543;37.950;-122.338;2023-02-15T16:22:29;102297.03;;;3.89;60.71
70011;BME280;59543;37.950;-122.338;2023-02-15T16:27:41;102301.97;;;4.36;56.92
70011;BME280;59543;37.950;-122.338;2023-02-15T16:35:30;102305.94;;;5.03;51.39
70011;BME280;59543;37.950;-122.338;2023-02-15T16:37:56;102303.38;;;5.19;49.47
70011;BME280;59543;37.950;-122.338;2023-02-15T16:42:51;102317.47;;;5.57;47.73
70011;BME280;59543;37.950;-122.338;2023-02-15T16:45:23;102314.38;;;5.82;46.83
70011;BME280;59543;37.950;-122.338;2023-02-15T16:47:53;102314.16;;;6.04;46.14
70011;BME280;59543;37.950;-122.338;2023-02-15T16:50:30;102318.41;;;6.08;46.63
70011;BME280;59543;37.950;-122.338;2023-02-15T16:52:58;102312.69;;;6.32;46.02
70011;BME280;59543;37.950;-122.338;2023-02-15T16:55:35;102312.88;;;6.45;44.99
70011;BME280;59543;37.950;-122.338;2023-02-15T16:58:05;102313.34;;;6.69;44.65
70011;BME280;59543;37.950;-122.338;2023-02-15T17:00:36;102317.91;;;6.82;43.29
70011;BME280;59543;37.950;-122.338;2023-02-15T17:03:22;102311.44;;;7.02;44.12
70011;BME280;59543;37.950;-122.338;2023-02-15T17:05:54;102311.25;;;7.51;41.90
70011;BME280;59543;37.950;-122.338;2023-02-15T17:11:16;102334.34;;;7.98;39.31
70011;BME280;59543;37.950;-122.338;2023-02-15T17:16:46;102326.94;;;8.46;38.42
70011;BME280;59543;37.950;-122.338;2023-02-15T17:19:21;102324.03;;;8.35;39.08
70011;BME280;59543;37.950;-122.338;2023-02-15T17:22:38;102320.78;;;8.44;36.24
70011;BME280;59543;37.950;-122.338;2023-02-15T17:24:41;102321.09;;;8.40;34.90
70011;BME280;59543;37.950;-122.338;2023-02-15T17:29:40;102325.41;;;8.42;34.24
70011;BME280;59543;37.950;-122.338;2023-02-15T17:32:24;102329.97;;;8.69;32.84
70011;BME280;59543;37.950;-122.338;2023-02-15T17:42:46;102339.16;;;8.93;33.47
70011;BME280;59543;37.950;-122.338;2023-02-15T17:45:13;102331.16;;;9.06;33.50
70011;BME280;59543;37.950;-122.338;2023-02-15T17:47:40;102340.94;;;9.34;33.38
70011;BME280;59543;37.950;-122.338;2023-02-15T17:50:08;102343.97;;;9.43;33.14
70011;BME280;59543;37.950;-122.338;2023-02-15T17:52:36;102342.44;;;9.38;32.78
70011;BME280;59543;37.950;-122.338;2023-02-15T17:55:12;102347.78;;;9.66;34.15
70011;BME280;59543;37.950;-122.338;2023-02-15T17:57:56;102346.06;;;9.65;35.56
70011;BME280;59543;37.950;-122.338;2023-02-15T18:00:22;102350.84;;;9.87;35.17
70011;BME280;59543;37.950;-122.338;2023-02-15T18:03:10;102345.16;;;9.78;34.92
70011;BME280;59543;37.950;-122.338;2023-02-15T18:05:56;102350.31;;;10.07;33.76
70011;BME280;59543;37.950;-122.338;2023-02-15T18:08:41;102350.13;;;10.10;32.78
70011;BME280;59543;37.950;-122.338;2023-02-15T18:11:26;102351.31;;;10.19;33.29
70011;BME280;59543;37.950;-122.338;2023-02-15T18:14:05;102354.78;;;10.34;32.46
70011;BME280;59543;37.950;-122.338;2023-02-15T18:16:34;102355.53;;;10.36;30.86
70011;BME280;59543;37.950;-122.338;2023-02-15T18:19:02;102349.47;;;10.19;32.18
70011;BME280;59543;37.950;-122.338;2023-02-15T18:21:31;102353.34;;;10.15;32.18
70011;BME280;59543;37.950;-122.338;2023-02-15T18:23:57;102354.75;;;10.21;32.85
70011;BME280;59543;37.950;-122.338;2023-02-15T18:26:25;102355.63;;;10.34;34.67
70011;BME280;59543;37.950;-122.338;2023-02-15T18:28:52;102350.56;;;10.55;33.94
70011;BME280;59543;37.950;-122.338;2023-02-15T18:31:19;102366.16;;;10.75;31.61
70011;BME280;59543;37.950;-122.338;2023-02-15T18:33:46;102361.09;;;10.58;31.06
70011;BME280;59543;37.950;-122.338;2023-02-15T18:36:28;102357.75;;;10.67;31.06
70011;BME280;59543;37.950;-122.338;2023-02-15T18:38:58;102367.00;;;10.76;31.51
70011;BME280;59543;37.950;-122.338;2023-02-15T18:41:25;102370.69;;;10.75;30.50
70011;BME280;59543;37.950;-122.338;2023-02-15T18:43:51;102379.38;;;10.79;30.48
70011;BME280;59543;37.950;-122.338;2023-02-15T18:46:19;102379.34;;;10.91;30.17